createdAt,value
2023-01-13T00:01:27.560Z,5.23
2023-01-13T00:03:55.503Z,4.50
2023-01-13T00:06:28.122Z,4.83
2023-01-13T00:08:55.827Z,4.10
2023-01-13T00:11:24.707Z,3.00
2023-01-13T00:13:52.294Z,3.17
2023-01-13T00:16:21.212Z,2.80
2023-01-13T00:18:51.453Z,3.00
2023-01-13T00:21:21.146Z,3.13
2023-01-13T00:23:48.951Z,2.20
2023-01-13T00:26:19.219Z,2.40
2023-01-13T00:28:46.909Z,2.27
2023-01-13T00:31:17.601Z,2.07
2023-01-13T00:33:45.468Z,2.47
2023-01-13T00:36:15.594Z,2.63
2023-01-13T00:38:43.664Z,2.30
2023-01-13T00:41:13.499Z,2.37
2023-01-13T00:43:42.287Z,2.20
2023-01-13T00:46:12.393Z,2.30
2023-01-13T00:48:39.974Z,2.17
2023-01-13T00:51:11.596Z,2.73
2023-01-13T00:53:41.354Z,2.70
2023-01-13T00:56:15.064Z,2.40
2023-01-13T00:58:44.636Z,2.30
2023-01-13T01:01:18.502Z,1.87
2023-01-13T01:03:48.898Z,2.43
2023-01-13T01:06:18.953Z,2.20
2023-01-13T01:08:46.764Z,1.87
2023-01-13T01:11:21.088Z,2.47
2023-01-13T01:13:52.318Z,1.73
2023-01-13T01:16:22.425Z,1.90
2023-01-13T01:18:51.965Z,1.57
2023-01-13T01:21:21.017Z,2.10
2023-01-13T01:23:48.580Z,1.95
2023-01-13T01:26:21.574Z,1.90
2023-01-13T01:28:49.813Z,2.17
2023-01-13T01:31:23.620Z,2.10
2023-01-13T01:33:51.911Z,2.10
2023-01-13T01:36:21.428Z,2.00
2023-01-13T01:38:50.018Z,1.80
2023-01-13T01:41:23.025Z,1.70
2023-01-13T01:43:59.966Z,1.70
2023-01-13T01:46:30.105Z,1.63
2023-01-13T01:49:10.183Z,1.73
2023-01-13T01:51:43.180Z,1.80
2023-01-13T01:54:13.508Z,1.70
2023-01-13T01:56:43.141Z,1.93
2023-01-13T01:59:11.781Z,1.90
2023-01-13T02:01:40.726Z,2.00
2023-01-13T02:04:19.689Z,1.93
2023-01-13T02:06:49.350Z,2.00
2023-01-13T02:09:18.083Z,2.20
2023-01-13T02:12:03.967Z,2.20
2023-01-13T02:14:34.734Z,2.40
2023-01-13T02:17:27.017Z,1.87
2023-01-13T02:19:57.137Z,2.07
2023-01-13T02:22:49.113Z,2.27
2023-01-13T02:25:37.867Z,2.43
2023-01-13T02:29:30.208Z,2.33
2023-01-13T02:32:07.686Z,2.20
2023-01-13T02:35:02.614Z,2.40
2023-01-13T02:37:33.756Z,2.53
2023-01-13T02:40:11.161Z,2.40
2023-01-13T02:43:08.223Z,2.30
2023-01-13T02:45:47.169Z,2.40
2023-01-13T02:48:17.140Z,2.40
2023-01-13T02:51:06.734Z,7.53
2023-01-13T02:53:40.147Z,5.87
2023-01-13T02:56:10.114Z,4.50
2023-01-13T02:58:39.761Z,2.77
2023-01-13T03:01:07.747Z,2.17
2023-01-13T03:03:36.658Z,3.07
2023-01-13T03:06:27.393Z,6.30
2023-01-13T03:09:11.860Z,5.27
2023-01-13T03:11:52.219Z,4.90
2023-01-13T03:14:37.936Z,2.80
2023-01-13T03:17:55.865Z,4.13
2023-01-13T03:20:27.778Z,5.47
2023-01-13T03:23:27.336Z,2.83
2023-01-13T03:26:03.029Z,2.47
2023-01-13T03:28:36.625Z,3.30
2023-01-13T03:31:10.388Z,2.87
2023-01-13T03:33:46.173Z,3.00
2023-01-13T03:36:16.268Z,3.07
2023-01-13T03:38:48.190Z,2.77
2023-01-13T03:41:41.349Z,3.00
2023-01-13T03:44:28.283Z,3.10
2023-01-13T03:47:04.417Z,3.27
2023-01-13T03:49:49.964Z,2.80
2023-01-13T03:52:25.605Z,2.47
2023-01-13T03:55:00.615Z,2.53
2023-01-13T03:57:32.565Z,2.67
2023-01-13T04:00:03.074Z,3.00
2023-01-13T04:02:59.067Z,1.50
2023-01-13T04:05:27.749Z,1.53
2023-01-13T04:08:24.038Z,2.10
2023-01-13T04:11:14.850Z,1.47
2023-01-13T04:13:45.808Z,0.97
2023-01-13T04:16:14.345Z,2.40
2023-01-13T04:18:42.021Z,1.70
2023-01-13T04:21:09.519Z,2.20
2023-01-13T04:23:36.867Z,1.57
2023-01-13T04:26:05.660Z,1.43
2023-01-13T04:28:36.083Z,1.53
2023-01-13T04:31:03.634Z,0.70
2023-01-13T04:33:31.020Z,1.07
2023-01-13T04:35:58.570Z,0.70
2023-01-13T04:38:26.116Z,0.50
2023-01-13T04:40:53.566Z,1.57
2023-01-13T04:43:21.053Z,0.73
2023-01-13T04:45:48.513Z,1.67
2023-01-13T04:48:16.146Z,0.83
2023-01-13T04:50:43.452Z,1.80
2023-01-13T04:53:11.204Z,1.07
2023-01-13T04:58:11.767Z,0.80
2023-01-13T05:00:39.463Z,1.57
2023-01-13T05:03:06.919Z,0.63
2023-01-13T05:05:34.801Z,2.00
2023-01-13T05:08:02.255Z,2.40
2023-01-13T05:10:29.660Z,2.80
2023-01-13T05:13:17.548Z,3.07
2023-01-13T05:16:06.345Z,2.70
2023-01-13T05:18:34.225Z,1.63
2023-01-13T05:21:01.532Z,0.80
2023-01-13T05:23:47.114Z,2.27
2023-01-13T05:26:14.401Z,2.93
2023-01-13T05:28:41.689Z,3.40
2023-01-13T05:31:09.114Z,3.33
2023-01-13T05:33:36.518Z,3.50
2023-01-13T05:36:04.281Z,3.07
2023-01-13T05:38:33.382Z,1.30
2023-01-13T05:41:19.693Z,3.40
2023-01-13T05:43:47.093Z,2.83
2023-01-13T05:46:15.118Z,4.80
2023-01-13T05:48:44.047Z,5.17
2023-01-13T05:51:12.900Z,3.93
2023-01-13T05:53:41.053Z,4.17
2023-01-13T05:56:09.244Z,3.67
2023-01-13T05:58:37.293Z,4.57
2023-01-13T06:01:07.692Z,5.67
2023-01-13T06:03:35.857Z,8.40
2023-01-13T06:06:04.481Z,12.60
2023-01-13T06:08:32.649Z,10.17
2023-01-13T06:11:00.839Z,11.27
2023-01-13T06:13:31.591Z,13.03
2023-01-13T06:16:03.061Z,10.70
2023-01-13T06:18:49.456Z,9.07
2023-01-13T06:23:53.523Z,13.27
2023-01-13T06:26:25.294Z,13.20
2023-01-13T06:28:52.785Z,14.10
2023-01-13T06:31:21.184Z,12.17
2023-01-13T06:33:53.273Z,13.03
2023-01-13T06:36:25.576Z,11.70
2023-01-13T06:38:57.836Z,11.50
2023-01-13T06:41:47.041Z,11.50
2023-01-13T06:44:14.772Z,11.83
2023-01-13T06:46:42.509Z,13.03
2023-01-13T06:49:12.798Z,11.03
2023-01-13T06:51:40.777Z,13.60
2023-01-13T06:54:09.348Z,12.13
2023-01-13T06:56:38.137Z,12.63
2023-01-13T06:59:05.989Z,10.03
2023-01-13T07:01:34.017Z,10.63
2023-01-13T07:04:27.031Z,10.30
2023-01-13T07:07:03.330Z,10.77
2023-01-13T07:09:31.632Z,12.43
2023-01-13T07:12:00.158Z,11.67
2023-01-13T07:14:49.476Z,12.97
2023-01-13T07:17:25.593Z,14.80
2023-01-13T07:19:54.255Z,12.40
2023-01-13T07:22:42.500Z,10.37
2023-01-13T07:25:12.104Z,13.37
2023-01-13T07:27:39.902Z,15.17
2023-01-13T07:30:11.249Z,15.40
2023-01-13T07:32:41.214Z,12.03
2023-01-13T07:37:55.004Z,12.90
2023-01-13T07:40:27.076Z,9.77
2023-01-13T07:57:57.496Z,9.07
2023-01-13T08:00:29.022Z,9.73
2023-01-13T08:03:34.457Z,13.63
2023-01-13T08:06:27.432Z,9.53
2023-01-13T08:11:53.588Z,11.10
2023-01-13T08:17:35.578Z,10.83
2023-01-13T08:20:12.467Z,12.47
2023-01-13T08:22:53.431Z,13.10
2023-01-13T08:38:43.728Z,10.27
2023-01-13T08:47:42.406Z,9.03
2023-01-13T08:50:15.477Z,9.90
2023-01-13T09:01:12.417Z,10.30
2023-01-13T09:03:42.318Z,11.13
2023-01-13T09:06:09.847Z,8.70
2023-01-13T09:08:37.316Z,9.47
2023-01-13T09:11:36.926Z,8.97
2023-01-13T09:14:35.132Z,7.73
2023-01-13T09:19:58.582Z,9.07
2023-01-13T09:22:27.620Z,9.27
2023-01-13T09:24:55.965Z,10.13
2023-01-13T09:27:23.716Z,9.38
2023-01-13T09:29:53.773Z,9.70
2023-01-13T09:32:22.109Z,10.70
2023-01-13T09:35:07.246Z,11.70
2023-01-13T09:37:39.292Z,11.33
2023-01-13T09:40:30.351Z,9.27
2023-01-13T09:43:45.646Z,9.50
2023-01-13T09:46:40.997Z,9.07
2023-01-13T09:49:24.557Z,10.70
2023-01-13T09:52:01.742Z,9.73
2023-01-13T09:54:35.538Z,11.50
2023-01-13T09:57:09.211Z,9.50
2023-01-13T09:59:38.428Z,8.88
2023-01-13T10:02:24.361Z,10.35
2023-01-13T10:05:10.186Z,8.77
2023-01-13T10:07:48.869Z,9.10
2023-01-13T10:10:42.234Z,10.10
2023-01-13T10:13:29.126Z,9.43
2023-01-13T10:16:20.284Z,9.90
2023-01-13T10:19:18.794Z,9.77
2023-01-13T10:22:12.660Z,9.93
2023-01-13T10:25:27.796Z,9.40
2023-01-13T10:27:57.885Z,8.82
2023-01-13T10:33:41.739Z,8.15
2023-01-13T10:36:22.523Z,7.38
2023-01-13T10:38:51.452Z,7.28
2023-01-13T10:41:37.437Z,7.40
2023-01-13T10:44:28.985Z,7.53
2023-01-13T10:59:35.003Z,2.45
2023-01-13T11:02:39.856Z,3.40
2023-01-13T11:05:21.956Z,3.53
2023-01-13T11:07:52.757Z,3.78
2023-01-13T11:10:32.966Z,3.23
2023-01-13T11:13:17.056Z,3.25
2023-01-13T11:15:55.215Z,3.55
2023-01-13T11:21:44.191Z,2.43
2023-01-13T11:24:30.379Z,2.53
2023-01-13T11:27:40.366Z,2.65
2023-01-13T11:30:55.660Z,2.58
2023-01-13T11:33:46.605Z,2.50
2023-01-13T11:36:25.701Z,2.85
2023-01-13T11:39:03.185Z,3.10
2023-01-13T11:41:33.859Z,3.25
2023-01-13T11:44:33.013Z,2.53
2023-01-13T11:47:01.982Z,3.40
2023-01-13T11:49:34.580Z,2.92
2023-01-13T11:52:23.081Z,2.72
2023-01-13T11:55:27.595Z,2.72
2023-01-13T11:58:31.758Z,2.40
2023-01-13T12:01:11.322Z,2.15
2023-01-13T12:04:01.169Z,2.55
2023-01-13T12:06:39.087Z,2.45
2023-01-13T12:09:47.860Z,2.72
2023-01-13T12:12:33.973Z,3.10
2023-01-13T12:15:36.359Z,3.08
2023-01-13T12:18:16.172Z,3.03
2023-01-13T12:21:08.482Z,3.30
2023-01-13T12:23:41.361Z,3.13
2023-01-13T12:26:16.757Z,3.92
2023-01-13T12:28:49.799Z,3.85
2023-01-13T12:31:20.235Z,4.18
2023-01-13T12:33:50.526Z,3.53
2023-01-13T12:36:46.237Z,4.25
2023-01-13T12:39:16.606Z,3.85
2023-01-13T12:42:27.356Z,4.35
2023-01-13T12:45:12.845Z,4.95
2023-01-13T12:47:44.734Z,5.03
2023-01-13T12:50:24.071Z,5.55
2023-01-13T12:52:53.904Z,7.05
2023-01-13T12:55:25.715Z,5.90
2023-01-13T12:58:02.552Z,5.43
2023-01-13T13:00:42.354Z,5.10
2023-01-13T13:03:12.953Z,5.70
2023-01-13T13:06:14.313Z,5.32
2023-01-13T13:08:47.193Z,4.53
2023-01-13T13:11:37.966Z,5.30
2023-01-13T13:14:10.729Z,3.90
2023-01-13T13:16:52.730Z,4.40
2023-01-13T13:19:22.904Z,4.22
2023-01-13T13:22:12.480Z,4.32
2023-01-13T13:24:51.867Z,3.88
2023-01-13T13:27:37.765Z,4.82
2023-01-13T13:30:23.945Z,4.25
2023-01-13T13:33:24.952Z,3.67
2023-01-13T13:36:08.238Z,3.75
2023-01-13T13:39:36.401Z,3.45
2023-01-13T13:42:36.152Z,3.15
2023-01-13T13:45:40.072Z,4.13
2023-01-13T13:48:27.794Z,2.85
2023-01-13T13:51:02.997Z,3.92
2023-01-13T13:53:36.210Z,5.05
2023-01-13T13:56:07.792Z,4.63
2023-01-13T13:58:37.169Z,4.53
2023-01-13T14:01:06.273Z,5.03
2023-01-13T14:03:40.072Z,4.90
2023-01-13T14:06:08.229Z,5.32
2023-01-13T14:08:38.903Z,5.20
2023-01-13T14:11:29.484Z,4.50
2023-01-13T14:14:04.304Z,4.60
2023-01-13T14:16:33.894Z,3.65
2023-01-13T14:19:02.587Z,4.57
2023-01-13T14:21:30.888Z,4.63
2023-01-13T14:24:02.023Z,4.78
2023-01-13T14:26:31.952Z,4.30
2023-01-13T14:29:01.627Z,4.78
2023-01-13T14:31:30.524Z,4.63
2023-01-13T14:34:01.592Z,4.85
2023-01-13T14:36:31.897Z,4.10
2023-01-13T14:39:05.454Z,4.70
2023-01-13T14:41:47.240Z,3.60
2023-01-13T14:44:26.914Z,4.45
2023-01-13T14:47:00.943Z,5.13
2023-01-13T14:49:44.404Z,5.28
2023-01-13T14:52:14.727Z,6.45
2023-01-13T14:54:45.271Z,5.55
2023-01-13T14:57:23.907Z,6.23
2023-01-13T15:00:16.421Z,6.75
2023-01-13T15:02:54.111Z,7.22
2023-01-13T15:05:24.442Z,6.40
2023-01-13T15:07:59.729Z,5.72
2023-01-13T15:10:33.459Z,5.00
2023-01-13T15:13:03.525Z,6.38
2023-01-13T15:15:39.672Z,6.00
2023-01-13T15:18:15.627Z,6.38
2023-01-13T15:20:43.465Z,6.88
2023-01-13T15:23:11.234Z,7.22
2023-01-13T15:25:40.629Z,8.38
2023-01-13T15:28:16.301Z,8.23
2023-01-13T15:30:43.692Z,9.05
2023-01-13T15:33:12.736Z,9.32
2023-01-13T15:35:44.033Z,11.48
2023-01-13T15:38:17.538Z,10.32
2023-01-13T15:40:45.825Z,8.55
2023-01-13T15:43:40.391Z,10.68
2023-01-13T15:46:34.188Z,18.13
2023-01-13T15:49:17.619Z,15.82
2023-01-13T15:51:45.153Z,13.88
2023-01-13T15:54:12.797Z,11.52
2023-01-13T15:56:42.087Z,13.07
2023-01-13T15:59:17.541Z,11.15
2023-01-13T16:01:46.273Z,11.05
2023-01-13T16:04:13.626Z,10.15
2023-01-13T16:06:41.021Z,10.25
2023-01-13T16:09:11.327Z,10.10
2023-01-13T16:11:38.790Z,8.52
2023-01-13T16:14:06.150Z,8.95
2023-01-13T16:16:33.636Z,10.98
2023-01-13T16:19:01.035Z,10.30
2023-01-13T16:21:28.480Z,9.60
2023-01-13T16:23:55.946Z,10.32
2023-01-13T16:26:29.688Z,10.38
2023-01-13T16:28:58.348Z,11.55
2023-01-13T16:31:32.502Z,11.52
2023-01-13T16:34:01.411Z,8.80
2023-01-13T16:36:31.053Z,9.80
2023-01-13T16:38:58.707Z,10.90
2023-01-13T16:41:26.255Z,10.68
2023-01-13T16:43:53.766Z,10.95
2023-01-13T16:46:30.304Z,8.30
2023-01-13T16:49:03.593Z,10.70
2023-01-13T16:51:31.433Z,9.32
2023-01-13T16:53:59.418Z,8.88
2023-01-13T16:56:29.766Z,10.70
2023-01-13T16:58:59.514Z,10.95
2023-01-13T17:01:30.399Z,11.43
2023-01-13T17:03:58.354Z,11.05
2023-01-13T17:06:32.694Z,11.45
2023-01-13T17:09:05.923Z,10.02
2023-01-13T17:11:33.503Z,11.93
2023-01-13T17:14:01.355Z,9.80
2023-01-13T17:16:42.668Z,12.77
2023-01-13T17:19:11.318Z,12.90
2023-01-13T17:21:38.762Z,12.18
2023-01-13T17:24:08.111Z,10.48
2023-01-13T17:26:42.327Z,7.50
2023-01-13T17:29:14.537Z,13.23
2023-01-13T17:31:42.338Z,14.95
2023-01-13T17:34:11.715Z,7.70
2023-01-13T17:36:39.129Z,11.77
2023-01-13T17:39:06.687Z,10.30
2023-01-13T17:41:34.109Z,9.60
2023-01-13T17:44:01.459Z,9.38
2023-01-13T17:46:28.953Z,13.55
2023-01-13T17:48:56.306Z,14.23
2023-01-13T17:51:25.308Z,13.77
2023-01-13T17:53:53.980Z,12.35
2023-01-13T17:56:21.540Z,9.25
2023-01-13T17:58:48.925Z,12.88
2023-01-13T18:01:20.942Z,8.48
2023-01-13T18:03:50.283Z,11.38
2023-01-13T18:06:20.328Z,8.82
2023-01-13T18:08:48.263Z,5.95
2023-01-13T18:11:20.489Z,10.48
2023-01-13T18:13:50.245Z,9.90
2023-01-13T18:16:19.368Z,4.85
2023-01-13T18:18:48.803Z,8.57
2023-01-13T18:21:40.976Z,6.60
2023-01-13T18:24:32.560Z,6.93
2023-01-13T18:27:18.592Z,8.88
2023-01-13T18:29:46.875Z,5.38
2023-01-13T18:32:15.268Z,9.93
2023-01-13T18:34:42.651Z,18.08
2023-01-13T18:37:12.397Z,6.22
2023-01-13T18:39:40.058Z,9.13
2023-01-13T18:42:27.893Z,17.95
2023-01-13T18:44:57.424Z,14.35
2023-01-13T18:47:26.515Z,12.60
2023-01-13T18:49:56.856Z,15.65
2023-01-13T18:52:24.824Z,13.85
2023-01-13T18:54:53.159Z,13.65
2023-01-13T18:57:21.600Z,16.02
2023-01-13T18:59:49.050Z,10.95
2023-01-13T19:02:19.920Z,11.13
2023-01-13T19:04:47.707Z,14.75
2023-01-13T19:07:23.530Z,16.33
2023-01-13T19:09:51.047Z,14.43
2023-01-13T19:12:26.253Z,13.93
2023-01-13T19:14:59.374Z,15.35
2023-01-13T19:17:30.407Z,15.45
2023-01-13T19:19:59.189Z,15.35
2023-01-13T19:22:32.839Z,26.20
2023-01-13T19:25:03.308Z,13.40
2023-01-13T19:27:31.234Z,18.73
2023-01-13T19:30:00.669Z,28.08
2023-01-13T19:32:30.874Z,31.98
2023-01-13T19:35:00.096Z,37.65
2023-01-13T19:37:33.921Z,35.38
2023-01-13T19:40:01.591Z,32.65
2023-01-13T19:43:01.196Z,24.70
2023-01-13T19:45:30.756Z,3.75
2023-01-13T19:48:02.032Z,12.27
2023-01-13T19:50:30.059Z,18.88
2023-01-13T19:52:57.804Z,17.45
2023-01-13T19:55:34.014Z,11.48
2023-01-13T19:58:01.463Z,7.18
2023-01-13T20:00:29.269Z,11.48
2023-01-13T20:03:00.808Z,12.60
2023-01-13T20:05:29.184Z,11.65
2023-01-13T20:07:56.760Z,8.73
2023-01-13T20:10:25.030Z,12.43
2023-01-13T20:12:52.617Z,10.63
2023-01-13T20:15:20.170Z,10.10
2023-01-13T20:17:48.088Z,9.75
2023-01-13T20:20:16.852Z,9.23
2023-01-13T20:22:44.574Z,6.80
2023-01-13T20:25:17.213Z,8.10
2023-01-13T20:27:45.991Z,7.40
2023-01-13T20:30:15.301Z,6.47
2023-01-13T20:32:44.050Z,7.20
2023-01-13T20:35:11.933Z,3.83
2023-01-13T20:37:42.546Z,5.60
2023-01-13T20:40:16.207Z,6.72
2023-01-13T20:42:46.219Z,2.03
2023-01-13T20:45:17.395Z,7.30
2023-01-13T20:47:46.037Z,6.85
2023-01-13T20:50:14.375Z,5.60
2023-01-13T20:52:45.305Z,3.47
2023-01-13T20:55:13.775Z,4.57
2023-01-13T20:57:42.717Z,3.65
2023-01-13T21:00:11.093Z,4.97
2023-01-13T21:02:40.610Z,3.38
2023-01-13T21:05:09.262Z,5.18
2023-01-13T21:07:37.736Z,4.95
2023-01-13T21:10:06.088Z,2.78
2023-01-13T21:12:52.322Z,5.60
2023-01-13T21:15:22.925Z,5.10
2023-01-13T21:18:10.328Z,5.20
2023-01-13T21:20:38.803Z,4.88
2023-01-13T21:23:06.555Z,5.18
2023-01-13T21:25:35.615Z,3.72
2023-01-13T21:28:05.760Z,2.42
2023-01-13T21:30:33.641Z,4.03
2023-01-13T21:33:01.281Z,3.10
2023-01-13T21:35:28.644Z,5.10
2023-01-13T21:37:56.123Z,4.55
2023-01-13T21:40:23.483Z,5.63
2023-01-13T21:43:11.226Z,4.57
2023-01-13T21:45:58.353Z,5.50
2023-01-13T21:48:25.835Z,4.38
2023-01-13T21:50:54.509Z,4.97
2023-01-13T21:53:23.416Z,5.47
2023-01-13T21:55:52.852Z,4.28
2023-01-13T21:58:20.229Z,2.72
2023-01-13T22:00:49.463Z,4.25
2023-01-13T22:03:18.851Z,4.97
2023-01-13T22:05:46.722Z,4.70
2023-01-13T22:08:14.304Z,4.82
2023-01-13T22:11:00.569Z,3.95
2023-01-13T22:13:48.006Z,3.88
2023-01-13T22:16:16.408Z,4.00
2023-01-13T22:18:43.940Z,3.72
2023-01-13T22:21:11.558Z,4.63
2023-01-13T22:23:39.066Z,3.80
2023-01-13T22:26:07.807Z,4.95
2023-01-13T22:28:45.628Z,5.70
2023-01-13T22:31:15.351Z,5.43
2023-01-13T22:33:43.391Z,4.53
2023-01-13T22:36:10.863Z,3.00
2023-01-13T22:38:38.391Z,4.50
2023-01-13T22:41:07.636Z,4.43
2023-01-13T22:43:37.614Z,5.18
2023-01-13T22:46:10.522Z,4.72
2023-01-13T22:48:39.136Z,4.50
2023-01-13T22:51:09.403Z,4.70
2023-01-13T22:53:40.534Z,4.70
2023-01-13T22:56:08.928Z,4.53
2023-01-13T22:58:37.453Z,2.78
2023-01-13T23:01:16.628Z,4.80
2023-01-13T23:03:48.890Z,4.40
2023-01-13T23:06:18.492Z,4.70
2023-01-13T23:08:47.068Z,4.22
2023-01-13T23:11:17.062Z,4.97
2023-01-13T23:13:44.570Z,4.88
2023-01-13T23:16:18.454Z,4.75
2023-01-13T23:18:48.153Z,3.58
2023-01-13T23:21:27.963Z,4.45
2023-01-13T23:23:57.682Z,5.63
2023-01-13T23:26:27.648Z,3.90
2023-01-13T23:29:02.162Z,5.38
2023-01-13T23:31:29.639Z,4.75
2023-01-13T23:33:57.133Z,3.05
2023-01-13T23:36:26.826Z,5.47
2023-01-13T23:38:55.171Z,4.47
2023-01-13T23:41:24.216Z,5.50
2023-01-13T23:44:00.253Z,5.13
2023-01-13T23:46:29.730Z,3.78
2023-01-13T23:48:57.163Z,3.50
2023-01-13T23:51:26.235Z,4.97
2023-01-13T23:53:54.638Z,4.15
2023-01-13T23:56:25.780Z,5.38
2023-01-13T23:58:53.728Z,5.00
